Terminal Aerodrome Forecast
Issued by NWS

Home | Current Version | Previous Version | Text Only | Print | Product List | Glossary On
Versions: 1 2 3 4 5 6 7 8 9 10 11 12 13 14 15 16 17 18 19
000
FTPA31 PHFO 272332
TAFHLI
TAF
PHLI 272332Z 2800/2824 11008KT P6SM SCT025 BKN035
     FM280400 19007KT P6SM VCSH SCT025 BKN045
     FM280900 26005KT P6SM VCSH FEW025 BKN040=

USA.gov is the U.S. government's official web portal to all federal, state and local government web resources and services.